N5MDT Weather Reports


Display with metric or nautical units.
time (UTC)temp
F
wind
direction
speed
MPH
gust
MPH
rain 1hr
in
rain 24hr
in
rain mn
in
humidity
%
barometer
mb
20220117100041 35 311 0.0 0.0 0.00 0.00 0.00 87 1020.9
20220117093041 35 311 0.0 0.0 0.00 0.00 0.00 87 1020.6
20220117090041 36 311 0.0 0.0 0.00 0.00 0.00 87 1020.6
20220117083041 36 311 0.0 0.0 0.00 0.00 0.00 87 1020.3
20220117080041 36 311 0.0 0.0 0.00 0.00 0.00 86 1020.2
20220117073040 37 311 0.0 0.0 0.00 0.00 0.00 86 1019.9
20220117070041 37 311 0.0 0.0 0.00 0.00 0.00 85 1019.8
20220117063040 38 311 0.0 0.0 0.00 0.00 0.00 85 1019.9
20220117060040 38 311 0.0 0.0 0.00 0.00 0.00 84 1019.8
20220117053040 39 311 0.0 0.0 0.00 0.00 0.00 83 1019.7
20220117050040 39 311 0.0 0.0 0.00 0.00 0.00 82 1019.6
20220117043040 40 311 0.0 0.0 0.00 0.00 0.00 81 1019.7
20220117040040 41 311 0.0 0.0 0.00 0.00 0.00 80 1019.4
20220117033040 42 311 0.0 1.0 0.00 0.00 0.00 78 1019.1
20220117030039 43 311 0.0 1.0 0.00 0.00 0.00 78 1018.7
20220117023039 44 311 0.0 1.0 0.00 0.00 0.00 75 1018.5
20220117020039 46 311 0.0 1.0 0.00 0.00 0.00 72 1018.4
20220117013039 47 311 0.0 1.0 0.00 0.00 0.00 69 1018.1
20220117010039 49 311 0.0 1.0 0.00 0.00 0.00 64 1017.7
20220117003039 50 311 0.0 0.0 0.00 0.00 0.00 58 1017.6
20220117000039 53 311 0.0 3.0 0.00 0.00 0.00 56 1017.6
20220116233039 54 303 3.0 4.0 0.00 0.00 0.00 49 1017.9
20220116230039 55 330 1.0 6.0 0.00 0.00 0.00 47 1017.9
20220116223039 55 308 1.0 8.0 0.00 0.00 0.00 47 1018.0
20220116220039 56 296 2.0 6.0 0.00 0.00 0.00 45 1017.9
20220116213039 57 306 2.0 7.0 0.00 0.00 0.00 46 1017.8
20220116210039 57 285 2.0 9.0 0.00 0.00 0.00 45 1017.9
20220116203039 57 345 2.0 6.0 0.00 0.00 0.00 49 1018.2
20220116200038 54 297 4.0 10.0 0.00 0.00 0.00 50 1018.7
20220116193038 53 302 5.0 9.0 0.00 0.00 0.00 52 1019.1
20220116190038 51 277 1.0 9.0 0.00 0.00 0.00 55 1019.6
20220116183038 50 5 0.0 8.0 0.00 0.00 0.00 58 1020.2
20220116180038 48 259 4.0 7.0 0.00 0.00 0.00 59 1020.7
20220116173038 46 294 1.0 8.0 0.00 0.00 0.00 61 1021.3
20220116170038 44 209 1.0 9.0 0.00 0.00 0.00 63 1021.6
20220116163038 42 287 3.0 7.0 0.00 0.00 0.00 65 1022.1
20220116160038 40 253 0.0 8.0 0.00 0.00 0.00 67 1022.1
20220116153038 38 304 3.0 7.0 0.00 0.00 0.00 70 1022.0
20220116150038 36 288 2.0 7.0 0.00 0.00 0.00 72 1022.0
20220116143038 34 289 2.0 6.0 0.00 0.00 0.00 73 1021.9
20220116140038 33 306 3.0 4.0 0.00 0.00 0.00 74 1021.5
20220116133038 33 304 0.0 4.0 0.00 0.00 0.00 73 1021.3
20220116130038 33 275 0.0 6.0 0.00 0.00 0.00 73 1021.1
20220116123038 33 84 1.0 4.0 0.00 0.00 0.00 74 1021.1
20220116120037 33 308 0.0 8.0 0.00 0.00 0.00 73 1020.6
20220116113037 33 288 2.0 5.0 0.00 0.00 0.00 73 1020.5
20220116110037 33 309 1.0 5.0 0.00 0.00 0.00 72 1020.4
20220116103037 34 317 1.0 4.0 0.00 0.00 0.00 70 1020.4